Time;durP1;ratioP1;P1;durP2;ratioP2;P2;SDS_P1;SDS_P2;PMS_P1;PMS_P2;Temp;Humidity;BMP_temperature;BMP_pressure;BME280_temperature;BME280_humidity;BME280_pressure;Samples;Min_cycle;Max_cycle;Signal;HPM_P1;HPM_P2
2024/01/24 05:05:35;;;;;;;0.30;0.30;;;12.00;99.90;;;;;;5899462;23;20491;-70
2024/01/24 05:08:01;;;;;;;0.30;0.30;;;12.00;99.90;;;;;;4978276;28;20450;-70
2024/01/24 05:10:27;;;;;;;0.30;0.20;;;12.00;99.90;;;;;;4978206;28;20183;-69
2024/01/24 05:12:52;;;;;;;0.30;0.30;;;12.00;99.90;;;;;;4978299;28;20652;-70
2024/01/24 05:15:18;;;;;;;0.30;0.30;;;12.00;99.90;;;;;;4977656;28;20473;-70
2024/01/24 05:17:43;;;;;;;0.30;0.30;;;12.00;99.90;;;;;;4978205;28;20182;-71
2024/01/24 05:20:10;;;;;;;0.30;0.30;;;12.00;99.90;;;;;;4978157;28;20706;-70
2024/01/24 05:22:38;;;;;;;0.30;0.30;;;11.90;99.90;;;;;;4976767;28;20183;-71
2024/01/24 05:25:06;;;;;;;0.30;0.30;;;12.00;99.90;;;;;;4976508;28;20879;-69
2024/01/24 05:27:32;;;;;;;0.30;0.30;;;12.00;99.90;;;;;;4978579;28;20472;-69
2024/01/24 05:29:58;;;;;;;0.30;0.30;;;12.00;99.90;;;;;;4980508;28;20175;-69
2024/01/24 05:32:24;;;;;;;0.30;0.30;;;12.10;99.90;;;;;;4981132;28;20584;-69
2024/01/24 05:34:49;;;;;;;0.30;0.30;;;12.10;99.90;;;;;;4979529;28;20457;-72
2024/01/24 05:37:15;;;;;;;0.30;0.27;;;12.00;99.90;;;;;;4981072;28;20696;-71
2024/01/24 05:39:41;;;;;;;0.30;0.20;;;12.10;99.90;;;;;;4980732;28;20194;-70
2024/01/24 05:42:07;;;;;;;0.33;0.33;;;12.10;99.90;;;;;;4979742;28;20187;-70
2024/01/24 05:44:34;;;;;;;0.30;0.20;;;12.10;99.90;;;;;;4979760;28;20385;-70
2024/01/24 05:47:01;;;;;;;0.30;0.30;;;12.20;99.90;;;;;;4977712;28;20426;-70
2024/01/24 05:49:27;;;;;;;0.30;0.20;;;12.20;99.90;;;;;;4976239;28;20400;-70
2024/01/24 05:51:52;;;;;;;0.30;0.23;;;12.20;99.90;;;;;;4977790;28;20503;-70
2024/01/24 05:54:18;;;;;;;0.30;0.20;;;12.30;99.90;;;;;;4977236;28;20195;-71
2024/01/24 05:56:44;;;;;;;0.30;0.30;;;12.30;99.90;;;;;;4977651;28;20198;-71
2024/01/24 05:59:09;;;;;;;0.30;0.30;;;12.30;99.90;;;;;;4977272;28;20645;-70
2024/01/24 06:01:36;;;;;;;0.30;0.30;;;12.40;99.90;;;;;;4978507;28;20202;-69
2024/01/24 06:04:02;;;;;;;0.30;0.30;;;12.40;99.90;;;;;;4978615;28;20171;-72
2024/01/24 06:06:27;;;;;;;0.30;0.30;;;12.40;99.90;;;;;;4976897;28;20504;-70
2024/01/24 06:08:53;;;;;;;0.30;0.30;;;12.40;99.90;;;;;;4975827;28;20182;-70
2024/01/24 06:11:18;;;;;;;0.33;0.33;;;12.40;99.90;;;;;;4976788;28;20268;-71
2024/01/24 06:13:44;;;;;;;0.30;0.30;;;12.40;99.90;;;;;;4976819;28;20229;-68
2024/01/24 06:16:10;;;;;;;0.30;0.30;;;12.40;99.90;;;;;;4974975;28;20269;-71
2024/01/24 06:18:36;;;;;;;0.30;0.30;;;12.50;99.90;;;;;;4977561;28;20410;-71
2024/01/24 06:21:01;;;;;;;0.40;0.40;;;12.50;99.90;;;;;;4976762;28;20421;-70
2024/01/24 06:23:27;;;;;;;0.30;0.30;;;12.50;99.90;;;;;;4976419;28;20265;-72
2024/01/24 06:25:52;;;;;;;0.30;0.30;;;12.50;99.90;;;;;;4976390;28;20196;-72
2024/01/24 06:28:18;;;;;;;0.30;0.20;;;12.60;99.90;;;;;;4976643;28;20257;-70
2024/01/24 06:30:44;;;;;;;0.30;0.30;;;12.60;99.90;;;;;;4976456;28;20184;-73
2024/01/24 06:33:09;;;;;;;0.30;0.30;;;12.60;99.90;;;;;;4976442;28;20184;-68
2024/01/24 06:35:35;;;;;;;0.30;0.27;;;12.60;99.90;;;;;;4975788;28;20637;-70
2024/01/24 06:38:01;;;;;;;0.30;0.30;;;12.60;99.90;;;;;;4975082;28;20238;-72
2024/01/24 06:40:27;;;;;;;0.40;0.40;;;12.60;99.90;;;;;;4976289;28;20186;-71
2024/01/24 06:42:52;;;;;;;0.30;0.30;;;12.60;99.90;;;;;;4976401;28;20402;-70
2024/01/24 06:45:19;;;;;;;0.30;0.20;;;12.60;99.90;;;;;;4974358;28;20204;-73
2024/01/24 06:47:47;;;;;;;0.30;0.30;;;12.60;99.90;;;;;;4976301;28;20611;-75
2024/01/24 06:50:13;;;;;;;0.30;0.30;;;12.70;99.90;;;;;;4975272;28;20526;-74
2024/01/24 06:52:41;;;;;;;0.30;0.30;;;12.70;99.90;;;;;;4975488;28;20469;-75
2024/01/24 06:55:08;;;;;;;0.30;0.30;;;12.80;99.90;;;;;;4974969;28;20427;-75
2024/01/24 06:57:34;;;;;;;0.30;0.30;;;12.80;99.90;;;;;;4975407;28;20391;-73
2024/01/24 07:00:00;;;;;;;0.40;0.40;;;12.70;99.90;;;;;;4975226;28;20406;-72
2024/01/24 07:02:26;;;;;;;0.30;0.30;;;12.70;99.90;;;;;;4972607;28;20179;-72
2024/01/24 07:04:51;;;;;;;0.30;0.30;;;12.70;99.90;;;;;;4973248;28;20426;-75
2024/01/24 07:07:17;;;;;;;0.30;0.20;;;12.70;99.90;;;;;;4973464;28;20219;-73
2024/01/24 07:09:43;;;;;;;0.30;0.30;;;12.70;99.90;;;;;;4972854;28;20278;-74
2024/01/24 07:12:09;;;;;;;0.30;0.30;;;12.70;99.90;;;;;;4973872;28;20638;-74
2024/01/24 07:14:35;;;;;;;0.30;0.30;;;12.70;99.90;;;;;;4973225;28;20203;-73
2024/01/24 07:17:01;;;;;;;0.30;0.30;;;12.80;99.90;;;;;;4974159;28;20433;-74
2024/01/24 07:19:27;;;;;;;0.30;0.30;;;12.80;99.90;;;;;;4975286;28;20195;-73
2024/01/24 07:21:52;;;;;;;0.30;0.30;;;12.80;99.90;;;;;;4975848;28;20493;-73
2024/01/24 07:24:18;;;;;;;0.30;0.30;;;12.80;99.90;;;;;;4974835;28;20191;-73
2024/01/24 07:26:44;;;;;;;0.30;0.30;;;12.80;99.90;;;;;;4975335;28;20195;-75
2024/01/24 07:29:10;;;;;;;0.30;0.30;;;12.90;99.90;;;;;;4975317;28;20453;-72
2024/01/24 07:31:37;;;;;;;0.30;0.30;;;12.90;99.90;;;;;;4975313;28;20176;-73
2024/01/24 07:34:03;;;;;;;0.30;0.20;;;13.00;99.90;;;;;;4974037;28;20423;-73
2024/01/24 07:36:29;;;;;;;0.30;0.20;;;13.00;99.90;;;;;;4974843;28;20426;-73
2024/01/24 07:38:54;;;;;;;0.30;0.30;;;13.00;99.90;;;;;;4975236;28;20642;-72
2024/01/24 07:41:20;;;;;;;0.30;0.30;;;13.00;99.90;;;;;;4975211;28;20173;-70
2024/01/24 07:43:45;;;;;;;0.30;0.30;;;13.10;99.90;;;;;;4974990;28;20183;-70
2024/01/24 07:46:11;;;;;;;0.30;0.27;;;13.10;99.90;;;;;;4974598;28;20209;-72
2024/01/24 07:48:37;;;;;;;0.30;0.30;;;13.10;99.90;;;;;;4974992;28;20591;-71
2024/01/24 07:51:04;;;;;;;0.30;0.30;;;13.10;99.90;;;;;;4975126;28;20182;-70
2024/01/24 07:53:30;;;;;;;0.30;0.30;;;13.10;99.90;;;;;;4975051;28;20180;-69
2024/01/24 07:55:56;;;;;;;0.30;0.30;;;13.10;99.90;;;;;;4974282;28;20470;-71
2024/01/24 07:58:22;;;;;;;0.30;0.30;;;13.10;99.90;;;;;;4974979;28;20180;-70
2024/01/24 08:00:47;;;;;;;0.30;0.20;;;13.20;99.90;;;;;;4973638;28;20501;-70
2024/01/24 08:03:13;;;;;;;0.30;0.30;;;13.20;99.90;;;;;;4974945;28;20406;-72
2024/01/24 08:05:39;;;;;;;0.30;0.30;;;13.20;99.90;;;;;;4972976;28;20700;-70
2024/01/24 08:08:05;;;;;;;0.40;0.40;;;13.20;99.90;;;;;;4974033;28;20226;-75
2024/01/24 08:10:30;;;;;;;0.30;0.20;;;13.20;99.90;;;;;;4972660;28;20638;-70
2024/01/24 08:12:56;;;;;;;0.30;0.30;;;13.30;99.90;;;;;;4973798;28;20183;-71
2024/01/24 08:15:22;;;;;;;0.30;0.30;;;13.30;99.90;;;;;;4973543;28;20216;-73
2024/01/24 08:17:47;;;;;;;0.30;0.30;;;13.30;99.90;;;;;;4972670;28;20183;-71
2024/01/24 08:20:13;;;;;;;0.30;0.20;;;13.30;99.90;;;;;;4972550;28;20175;-69
2024/01/24 08:22:39;;;;;;;0.30;0.27;;;13.30;99.90;;;;;;4971040;28;20646;-70
2024/01/24 08:25:05;;;;;;;0.30;0.20;;;13.30;99.90;;;;;;4973472;28;20215;-72
2024/01/24 08:27:30;;;;;;;0.30;0.30;;;13.40;99.90;;;;;;4973653;28;20330;-73
2024/01/24 08:29:57;;;;;;;0.30;0.30;;;13.40;99.90;;;;;;4973252;28;20837;-73
2024/01/24 08:32:22;;;;;;;0.30;0.30;;;13.40;99.90;;;;;;4972344;28;20642;-72
2024/01/24 08:34:48;;;;;;;0.30;0.30;;;13.40;99.90;;;;;;4973313;28;20487;-71
2024/01/24 08:37:14;;;;;;;0.30;0.20;;;13.30;99.90;;;;;;4973407;28;20274;-72
2024/01/24 08:39:40;;;;;;;0.30;0.30;;;13.40;99.90;;;;;;4972407;28;20183;-73
2024/01/24 08:42:06;;;;;;;0.30;0.20;;;13.40;99.90;;;;;;4973832;28;20172;-72
2024/01/24 08:44:32;;;;;;;0.30;0.30;;;13.50;99.90;;;;;;4973135;28;20910;-73
2024/01/24 08:46:57;;;;;;;0.30;0.30;;;13.60;99.90;;;;;;4974243;28;20402;-72
2024/01/24 08:49:23;;;;;;;0.30;0.20;;;13.60;99.90;;;;;;4974004;28;20968;-67
2024/01/24 08:51:49;;;;;;;0.30;0.20;;;13.70;99.90;;;;;;4974260;28;20179;-72
2024/01/24 08:54:14;;;;;;;0.30;0.20;;;13.70;99.90;;;;;;4972742;28;20184;-71
2024/01/24 08:56:41;;;;;;;0.30;0.30;;;13.80;99.90;;;;;;4974060;28;20192;-71
2024/01/24 08:59:06;;;;;;;0.30;0.30;;;13.80;99.90;;;;;;4972948;28;20168;-72
2024/01/24 09:01:32;;;;;;;0.30;0.30;;;13.80;99.90;;;;;;4974414;28;20400;-71
2024/01/24 09:03:58;;;;;;;0.30;0.20;;;13.80;99.90;;;;;;4973082;28;20172;-71
2024/01/24 09:06:25;;;;;;;0.30;0.30;;;13.90;99.90;;;;;;4973506;28;20565;-70
2024/01/24 09:08:52;;;;;;;0.30;0.30;;;13.90;99.90;;;;;;4974214;28;20176;-71
2024/01/24 09:11:18;;;;;;;0.30;0.30;;;13.90;99.90;;;;;;4973909;28;20880;-71
2024/01/24 09:13:46;;;;;;;0.30;0.30;;;14.00;99.90;;;;;;4973108;28;20374;-72
2024/01/24 09:16:12;;;;;;;0.30;0.30;;;14.00;99.90;;;;;;4973485;28;20462;-70
2024/01/24 09:18:39;;;;;;;1.47;0.50;;;14.10;99.90;;;;;;4973715;28;20411;-72
2024/01/24 09:21:04;;;;;;;0.30;0.20;;;14.20;99.90;;;;;;4974093;28;20188;-70
2024/01/24 09:23:30;;;;;;;0.30;0.30;;;14.20;99.90;;;;;;4973851;28;20817;-71
2024/01/24 09:25:55;;;;;;;0.30;0.30;;;14.30;99.90;;;;;;4973467;28;20219;-71
2024/01/24 09:28:21;;;;;;;0.30;0.30;;;14.30;99.90;;;;;;4973958;28;20184;-70
2024/01/24 09:30:47;;;;;;;0.30;0.20;;;14.40;99.90;;;;;;4973935;28;20172;-70
2024/01/24 09:33:12;;;;;;;0.30;0.30;;;14.50;99.90;;;;;;4974091;28;20223;-72
2024/01/24 09:35:38;;;;;;;0.30;0.30;;;14.50;99.90;;;;;;4973412;28;20216;-70
2024/01/24 09:38:04;;;;;;;0.30;0.30;;;14.50;99.90;;;;;;4974182;28;20610;-70
2024/01/24 09:40:30;;;;;;;0.30;0.30;;;14.60;99.90;;;;;;4973215;28;20200;-71
2024/01/24 09:43:00;;;;;;;0.30;0.30;;;14.60;99.90;;;;;;4977323;28;20415;-67
2024/01/24 09:45:28;;;;;;;0.30;0.30;;;14.60;99.90;;;;;;4977115;28;20428;-67
2024/01/24 09:47:57;;;;;;;0.30;0.30;;;14.70;99.90;;;;;;4976281;28;20450;-68
2024/01/24 09:50:23;;;;;;;0.30;0.20;;;14.80;99.90;;;;;;4976163;28;20515;-70
2024/01/24 09:52:50;;;;;;;0.30;0.30;;;14.90;99.90;;;;;;4977163;28;20447;-68
2024/01/24 09:55:18;;;;;;;0.30;0.27;;;14.90;99.90;;;;;;4976695;28;20460;-67
2024/01/24 09:57:45;;;;;;;0.30;0.20;;;15.00;99.90;;;;;;4977090;28;20776;-68
2024/01/24 10:00:14;;;;;;;0.30;0.30;;;15.00;99.90;;;;;;4975757;28;20601;-68
2024/01/24 10:02:44;;;;;;;0.40;0.40;;;15.10;99.90;;;;;;4975278;28;20761;-69
2024/01/24 10:05:15;;;;;;;0.30;0.30;;;15.20;99.90;;;;;;4974996;28;20871;-69
2024/01/24 10:07:41;;;;;;;0.30;0.30;;;15.20;99.90;;;;;;4975750;28;20439;-67
2024/01/24 10:10:12;;;;;;;0.30;0.30;;;15.30;99.90;;;;;;4975789;28;20414;-67
2024/01/24 10:12:39;;;;;;;0.30;0.30;;;15.30;99.90;;;;;;4975708;28;20424;-67
2024/01/24 10:15:05;;;;;;;0.30;0.20;;;15.50;99.90;;;;;;4974069;28;20802;-69
2024/01/24 10:17:31;;;;;;;0.30;0.20;;;15.60;99.90;;;;;;4974460;28;20425;-69
2024/01/24 10:19:57;;;;;;;0.30;0.30;;;15.70;99.90;;;;;;4976689;28;20388;-68
2024/01/24 10:22:23;;;;;;;0.30;0.20;;;15.80;99.90;;;;;;4977004;28;20178;-68
2024/01/24 10:24:49;;;;;;;0.30;0.20;;;15.80;99.90;;;;;;4975007;28;20743;-67
2024/01/24 10:27:15;;;;;;;0.30;0.20;;;15.60;99.90;;;;;;4976719;28;20192;-69
2024/01/24 10:29:43;;;;;;;0.30;0.20;;;15.50;99.90;;;;;;4976619;28;20409;-69
2024/01/24 10:32:09;;;;;;;0.30;0.30;;;15.40;99.90;;;;;;4976574;28;20192;-68
2024/01/24 10:34:36;;;;;;;0.30;0.20;;;15.30;99.90;;;;;;4974935;28;21028;-67
2024/01/24 10:37:02;;;;;;;0.30;0.20;;;15.50;99.90;;;;;;4976327;28;20496;-68
2024/01/24 10:39:30;;;;;;;0.30;0.20;;;15.60;99.90;;;;;;4976221;28;20406;-68
2024/01/24 10:42:02;;;;;;;0.30;0.30;;;15.80;99.90;;;;;;4976303;28;20192;-68
2024/01/24 10:44:32;;;;;;;0.30;0.20;;;15.80;99.90;;;;;;4976332;28;20419;-67
2024/01/24 10:46:58;;;;;;;0.30;0.20;;;15.70;99.90;;;;;;4974973;28;20463;-67
2024/01/24 10:49:24;;;;;;;0.30;0.30;;;15.50;99.90;;;;;;4976265;28;20419;-68
2024/01/24 10:51:51;;;;;;;1.73;1.63;;;15.40;99.90;;;;;;4975315;28;20211;-67
2024/01/24 10:54:17;;;;;;;0.30;0.30;;;15.20;99.90;;;;;;4975757;28;20409;-67
2024/01/24 10:56:47;;;;;;;0.30;0.30;;;15.20;99.90;;;;;;4976114;28;20395;-66
2024/01/24 10:59:13;;;;;;;0.30;0.20;;;15.10;99.90;;;;;;4975950;28;20758;-69
2024/01/24 11:01:39;;;;;;;0.30;0.30;;;15.20;99.90;;;;;;4975995;28;20405;-69
2024/01/24 11:04:07;;;;;;;0.30;0.30;;;15.40;99.90;;;;;;4974162;28;20964;-71
2024/01/24 11:06:35;;;;;;;0.30;0.30;;;15.50;99.90;;;;;;4975421;28;20401;-69
2024/01/24 11:09:24;;;;;;;0.30;0.30;;;15.50;99.90;;;;;;4975997;28;20399;-69
2024/01/24 11:11:57;;;;;;;0.30;0.30;;;15.50;99.90;;;;;;4975858;28;20442;-70
2024/01/24 11:14:29;;;;;;;0.30;0.30;;;15.50;99.90;;;;;;4975215;28;20398;-70
2024/01/24 11:16:57;;;;;;;0.30;0.30;;;15.40;99.90;;;;;;4975522;28;20919;-72
2024/01/24 11:19:23;;;;;;;0.30;0.20;;;15.30;99.90;;;;;;4974036;28;20446;-72
2024/01/24 11:21:50;;;;;;;0.30;0.20;;;15.20;99.90;;;;;;4975372;28;20410;-71
2024/01/24 11:24:43;;;;;;;0.30;0.27;;;14.90;99.90;;;;;;4973508;28;20423;-71
2024/01/24 11:27:27;;;;;;;0.30;0.30;;;14.60;99.90;;;;;;4973706;28;20768;-72
2024/01/24 11:29:54;;;;;;;0.30;0.30;;;14.30;99.90;;;;;;4975261;28;20404;-70
2024/01/24 11:32:44;;;;;;;0.30;0.30;;;14.20;99.90;;;;;;4975323;28;20375;-70
2024/01/24 11:35:40;;;;;;;0.30;0.20;;;14.00;99.90;;;;;;4974557;28;20517;-70
2024/01/24 11:38:27;;;;;;;0.30;0.30;;;13.90;99.90;;;;;;4941121;28;20495;-70
2024/01/24 11:41:10;;;;;;;0.30;0.20;;;13.70;99.90;;;;;;4975122;28;20400;-70
2024/01/24 11:43:36;;;;;;;0.30;0.30;;;13.60;99.90;;;;;;4975025;28;20425;-70
2024/01/24 11:46:06;;;;;;;0.30;0.30;;;13.50;99.90;;;;;;4974502;28;20467;-69
2024/01/24 11:48:35;;;;;;;0.30;0.30;;;13.50;99.90;;;;;;4974666;28;20219;-69
2024/01/24 11:51:05;;;;;;;0.30;0.20;;;13.50;99.90;;;;;;4974413;28;20396;-70
2024/01/24 11:53:31;;;;;;;0.30;0.20;;;13.50;99.90;;;;;;4974376;28;20763;-69
2024/01/24 11:56:05;;;;;;;0.30;0.30;;;13.40;99.90;;;;;;4972726;28;20466;-68
2024/01/24 11:58:31;;;;;;;0.30;0.20;;;13.40;99.90;;;;;;4972839;28;20753;-69
2024/01/24 12:01:07;;;;;;;0.30;0.30;;;13.50;99.90;;;;;;4974828;28;20422;-70
2024/01/24 12:03:34;;;;;;;0.30;0.30;;;13.50;99.90;;;;;;4973900;28;20396;-74
2024/01/24 12:06:00;;;;;;;0.30;0.30;;;13.50;99.90;;;;;;4972953;28;20526;-72
2024/01/24 12:08:26;;;;;;;0.30;0.30;;;13.50;99.90;;;;;;4974593;28;20948;-69
2024/01/24 12:10:53;;;;;;;0.30;0.20;;;13.50;99.90;;;;;;4974557;28;20390;-75
2024/01/24 12:13:21;;;;;;;0.30;0.27;;;13.40;99.90;;;;;;4973451;28;20538;-69
2024/01/24 12:15:48;;;;;;;0.30;0.30;;;13.40;99.90;;;;;;4974340;28;20515;-75
2024/01/24 12:18:16;;;;;;;0.30;0.30;;;13.40;99.90;;;;;;4973470;28;20455;-75
2024/01/24 12:20:46;;;;;;;0.30;0.30;;;13.40;99.90;;;;;;4974470;28;20762;-70
2024/01/24 12:23:14;;;;;;;0.30;0.30;;;13.40;99.90;;;;;;4974329;28;20403;-69
2024/01/24 12:25:40;;;;;;;1.23;0.67;;;13.40;99.90;;;;;;4972815;28;20444;-69
2024/01/24 12:28:07;;;;;;;0.30;0.30;;;13.40;99.90;;;;;;4974562;28;20403;-69
2024/01/24 12:30:33;;;;;;;0.30;0.30;;;13.40;99.90;;;;;;4973218;28;20411;-69
2024/01/24 12:32:59;;;;;;;0.30;0.20;;;13.30;99.90;;;;;;4974640;28;20478;-69
2024/01/24 12:35:28;;;;;;;0.30;0.30;;;13.30;99.90;;;;;;4974021;28;20207;-69
2024/01/24 12:38:01;;;;;;;0.30;0.20;;;13.30;99.90;;;;;;4974317;28;20375;-69
2024/01/24 12:40:31;;;;;;;0.30;0.30;;;13.20;99.90;;;;;;4974697;28;20410;-69
2024/01/24 12:42:58;;;;;;;0.30;0.30;;;13.30;99.90;;;;;;4974420;28;20401;-69
2024/01/24 12:45:25;;;;;;;0.30;0.20;;;13.30;99.90;;;;;;4971040;28;20435;-70
2024/01/24 12:47:51;;;;;;;0.30;0.30;;;13.40;99.90;;;;;;4972266;28;20906;-69
2024/01/24 12:50:17;;;;;;;0.30;0.30;;;13.40;99.90;;;;;;4972291;28;20443;-71
2024/01/24 12:52:44;;;;;;;0.30;0.30;;;13.50;99.90;;;;;;4971043;28;20425;-70
2024/01/24 12:55:09;;;;;;;0.30;0.30;;;13.60;99.90;;;;;;4971953;28;20262;-70
2024/01/24 12:57:35;;;;;;;0.30;0.20;;;13.70;99.90;;;;;;4972354;28;20913;-68
2024/01/24 13:00:06;;;;;;;0.30;0.30;;;13.80;99.90;;;;;;4974131;28;20177;-68
2024/01/24 13:02:32;;;;;;;0.30;0.30;;;13.80;99.90;;;;;;4973910;28;20455;-70
2024/01/24 13:04:57;;;;;;;0.30;0.30;;;13.90;99.90;;;;;;4973263;28;20386;-70
2024/01/24 13:07:23;;;;;;;0.30;0.20;;;14.00;99.90;;;;;;4973666;28;20488;-70
2024/01/24 13:09:49;;;;;;;0.30;0.27;;;14.00;99.90;;;;;;4972931;28;20174;-70
2024/01/24 13:12:15;;;;;;;0.30;0.20;;;14.10;99.90;;;;;;4973724;28;20411;-69
2024/01/24 13:14:41;;;;;;;0.30;0.30;;;14.20;99.90;;;;;;4974558;28;20200;-71
2024/01/24 13:17:08;;;;;;;0.30;0.30;;;14.30;99.90;;;;;;4976503;28;20993;-71
2024/01/24 13:19:36;;;;;;;0.30;0.20;;;14.30;99.90;;;;;;4977582;28;20440;-71
2024/01/24 13:22:02;;;;;;;0.30;0.30;;;14.30;99.90;;;;;;4977424;28;20454;-69
2024/01/24 13:24:28;;;;;;;0.30;0.30;;;14.30;99.90;;;;;;4977388;28;20411;-70
2024/01/24 13:26:55;;;;;;;0.30;0.30;;;14.30;99.90;;;;;;4977679;28;20368;-70
2024/01/24 13:29:21;;;;;;;0.30;0.30;;;14.20;99.90;;;;;;4977476;28;20418;-70
2024/01/24 13:31:47;;;;;;;0.30;0.30;;;14.20;99.90;;;;;;4977769;28;20789;-66
2024/01/24 13:34:13;;;;;;;0.30;0.30;;;14.10;99.90;;;;;;4976160;28;20753;-70
2024/01/24 13:36:40;;;;;;;0.30;0.20;;;14.10;99.90;;;;;;4977746;28;20450;-70
2024/01/24 13:39:08;;;;;;;0.30;0.30;;;14.00;99.90;;;;;;4977845;28;20412;-69
2024/01/24 13:41:34;;;;;;;0.30;0.30;;;13.90;99.90;;;;;;4977509;28;20382;-72
2024/01/24 13:44:00;;;;;;;0.30;0.30;;;13.90;99.90;;;;;;4976883;28;20466;-71
2024/01/24 13:46:25;;;;;;;0.30;0.30;;;13.80;99.90;;;;;;4976796;28;20473;-73
2024/01/24 13:48:52;;;;;;;0.30;0.30;;;13.90;99.90;;;;;;4977453;28;20188;-73
2024/01/24 13:51:17;;;;;;;0.30;0.30;;;13.90;99.90;;;;;;4975950;28;20314;-73
2024/01/24 13:53:43;;;;;;;0.30;0.30;;;13.90;99.90;;;;;;4977780;28;20519;-73
2024/01/24 13:56:09;;;;;;;0.30;0.30;;;13.80;99.90;;;;;;4976897;28;20215;-69
2024/01/24 13:58:35;;;;;;;0.30;0.20;;;13.80;99.90;;;;;;4977396;28;20627;-74
2024/01/24 14:01:01;;;;;;;0.30;0.20;;;13.80;99.90;;;;;;4977549;28;20168;-75
2024/01/24 14:03:26;;;;;;;0.30;0.30;;;13.70;99.90;;;;;;4978096;28;20404;-75
2024/01/24 14:05:52;;;;;;;0.30;0.30;;;13.70;99.90;;;;;;4977086;28;20271;-73
2024/01/24 14:08:17;;;;;;;0.30;0.27;;;13.60;99.90;;;;;;4977415;28;20207;-73
2024/01/24 14:10:43;;;;;;;0.30;0.20;;;13.60;99.90;;;;;;4977433;28;20194;-71
2024/01/24 14:13:09;;;;;;;0.30;0.30;;;13.60;99.90;;;;;;4975562;28;20180;-73
2024/01/24 14:15:36;;;;;;;0.30;0.30;;;13.50;99.90;;;;;;4976476;28;20467;-74
2024/01/24 14:18:02;;;;;;;0.30;0.30;;;13.40;99.90;;;;;;4975637;28;20206;-73
2024/01/24 14:20:28;;;;;;;0.30;0.30;;;13.40;99.90;;;;;;4976664;28;20500;-75
2024/01/24 14:22:53;;;;;;;0.30;0.30;;;13.40;99.90;;;;;;4978213;28;20403;-71
2024/01/24 14:25:19;;;;;;;0.30;0.30;;;13.30;99.90;;;;;;4976847;28;20298;-75
2024/01/24 14:27:45;;;;;;;0.30;0.30;;;13.30;99.90;;;;;;4978086;28;20175;-75
2024/01/24 14:30:11;;;;;;;0.30;0.30;;;13.20;99.90;;;;;;4975229;28;20426;-74
2024/01/24 14:32:38;;;;;;;0.30;0.30;;;13.20;99.90;;;;;;4975103;28;20179;-74
2024/01/24 14:35:07;;;;;;;0.30;0.20;;;13.10;99.90;;;;;;4974732;28;20445;-75
2024/01/24 14:37:33;;;;;;;0.30;0.30;;;13.00;99.90;;;;;;4976479;28;20407;-76
2024/01/24 14:39:59;;;;;;;0.30;0.30;;;13.00;99.90;;;;;;4974897;28;20726;-75
2024/01/24 14:42:25;;;;;;;0.30;0.30;;;12.90;99.90;;;;;;4976220;28;20410;-75
2024/01/24 14:44:52;;;;;;;0.30;0.30;;;12.90;99.90;;;;;;4976176;28;20704;-76
2024/01/24 14:47:18;;;;;;;0.30;0.30;;;12.80;99.90;;;;;;4976176;28;20198;-75
2024/01/24 14:49:45;;;;;;;0.30;0.30;;;12.80;99.90;;;;;;4976142;28;20762;-75
2024/01/24 14:52:12;;;;;;;0.30;0.30;;;12.80;99.90;;;;;;4976347;28;20920;-74
2024/01/24 14:54:37;;;;;;;0.30;0.30;;;12.80;99.90;;;;;;4975880;28;20512;-77
2024/01/24 14:57:03;;;;;;;0.70;0.70;;;12.80;99.90;;;;;;4977671;28;21116;-73
2024/01/24 14:59:29;;;;;;;0.30;0.20;;;12.80;99.90;;;;;;4976287;28;20162;-73
2024/01/24 15:01:54;;;;;;;0.33;0.33;;;12.90;99.90;;;;;;4976226;28;20175;-75
2024/01/24 15:04:20;;;;;;;0.30;0.30;;;12.90;99.90;;;;;;4975870;28;20178;-75
2024/01/24 15:06:46;;;;;;;0.30;0.30;;;12.80;99.90;;;;;;4976054;28;20206;-74
2024/01/24 15:09:12;;;;;;;0.83;0.67;;;12.80;99.90;;;;;;4975891;28;20191;-75
2024/01/24 15:11:37;;;;;;;0.30;0.30;;;12.80;99.90;;;;;;4974713;28;20642;-75
2024/01/24 15:14:03;;;;;;;0.30;0.20;;;12.70;99.90;;;;;;4974370;28;20401;-75
2024/01/24 15:16:29;;;;;;;1.73;0.60;;;12.70;99.90;;;;;;4974279;28;20257;-75
2024/01/24 15:18:56;;;;;;;0.30;0.30;;;12.70;99.90;;;;;;4975771;28;20296;-74
2024/01/24 15:21:21;;;;;;;0.30;0.30;;;12.60;99.90;;;;;;4975949;28;20785;-75
2024/01/24 15:23:47;;;;;;;0.30;0.30;;;12.60;99.90;;;;;;4975866;28;20428;-74
2024/01/24 15:26:12;;;;;;;0.30;0.30;;;12.50;99.90;;;;;;4975025;28;20210;-73
2024/01/24 15:28:38;;;;;;;1.90;0.50;;;12.50;99.90;;;;;;4975560;28;20273;-74
2024/01/24 15:31:04;;;;;;;0.30;0.30;;;12.50;99.90;;;;;;4974234;28;20190;-75
2024/01/24 15:33:31;;;;;;;0.30;0.30;;;12.50;99.90;;;;;;4975895;28;20178;-74
2024/01/24 15:35:58;;;;;;;0.30;0.20;;;12.40;99.90;;;;;;4974343;28;20617;-75
2024/01/24 15:38:25;;;;;;;0.30;0.30;;;12.40;99.90;;;;;;4975236;28;20548;-74
2024/01/24 15:40:51;;;;;;;0.30;0.30;;;12.40;99.90;;;;;;4975476;28;20417;-75
2024/01/24 15:43:18;;;;;;;0.30;0.30;;;12.30;99.90;;;;;;4975537;28;20450;-74
2024/01/24 15:45:44;;;;;;;0.30;0.30;;;12.30;99.90;;;;;;4974980;28;20517;-76
2024/01/24 15:48:12;;;;;;;0.30;0.20;;;12.30;99.90;;;;;;4975366;28;20406;-74
2024/01/24 15:50:38;;;;;;;0.30;0.30;;;12.20;99.90;;;;;;4975271;28;20427;-74
2024/01/24 15:53:04;;;;;;;0.30;0.30;;;12.20;99.90;;;;;;4975937;28;20506;-75
2024/01/24 15:55:33;;;;;;;0.30;0.30;;;12.20;99.90;;;;;;4975406;28;21027;-67
2024/01/24 15:57:59;;;;;;;0.30;0.20;;;12.20;99.90;;;;;;4975468;28;20414;-68
2024/01/24 16:00:24;;;;;;;0.30;0.30;;;12.10;99.90;;;;;;4973686;28;20422;-66
2024/01/24 16:02:50;;;;;;;0.30;0.30;;;12.10;99.90;;;;;;4974072;28;20187;-67
2024/01/24 16:05:22;;;;;;;0.30;0.30;;;12.00;99.90;;;;;;4975488;28;20528;-65
2024/01/24 16:07:48;;;;;;;0.30;0.30;;;12.00;99.90;;;;;;4975576;28;20234;-69
2024/01/24 16:10:13;;;;;;;0.30;0.30;;;12.00;99.90;;;;;;4975565;28;20402;-71
2024/01/24 16:12:39;;;;;;;0.30;0.30;;;12.00;99.90;;;;;;4976029;28;20187;-69
2024/01/24 16:15:05;;;;;;;0.30;0.20;;;12.00;99.90;;;;;;4982737;28;20234;-68
2024/01/24 16:17:31;;;;;;;0.30;0.20;;;12.00;99.90;;;;;;4978756;28;20171;-70
2024/01/24 16:19:57;;;;;;;0.30;0.30;;;12.00;99.90;;;;;;4982775;28;20410;-66
2024/01/24 16:22:24;;;;;;;0.30;0.20;;;12.00;99.90;;;;;;4985006;28;20805;-68
2024/01/24 16:24:51;;;;;;;0.30;0.30;;;12.00;99.90;;;;;;4985848;28;20177;-67
2024/01/24 16:27:16;;;;;;;0.30;0.20;;;12.00;99.90;;;;;;4985147;28;20888;-68
2024/01/24 16:29:42;;;;;;;0.30;0.30;;;11.90;99.90;;;;;;4979001;28;20417;-68
2024/01/24 16:32:08;;;;;;;0.30;0.30;;;11.90;99.90;;;;;;4975754;28;20659;-68
2024/01/24 16:34:33;;;;;;;0.40;0.40;;;11.90;99.90;;;;;;4974863;28;20200;-68
2024/01/24 16:36:59;;;;;;;0.30;0.30;;;11.80;99.90;;;;;;4974966;28;20200;-70
2024/01/24 16:39:25;;;;;;;0.77;0.77;;;11.80;99.90;;;;;;4980201;28;20199;-71
2024/01/24 16:41:50;;;;;;;0.30;0.30;;;11.80;99.90;;;;;;4983051;28;20428;-69
2024/01/24 16:44:18;;;;;;;0.30;0.30;;;11.80;99.90;;;;;;4987010;28;20182;-72
2024/01/24 16:46:44;;;;;;;0.30;0.30;;;11.80;99.90;;;;;;4984080;28;20270;-66
2024/01/24 16:49:10;;;;;;;0.30;0.30;;;11.70;99.90;;;;;;4982940;28;20416;-66
2024/01/24 16:51:36;;;;;;;0.40;0.40;;;11.70;99.90;;;;;;4980854;28;20433;-64
2024/01/24 16:54:01;;;;;;;0.30;0.30;;;11.80;99.90;;;;;;4979647;28;20275;-64
2024/01/24 16:56:27;;;;;;;0.30;0.30;;;11.80;99.90;;;;;;4980554;28;20250;-71
2024/01/24 16:58:53;;;;;;;0.30;0.30;;;11.80;99.90;;;;;;4981868;28;20167;-70
2024/01/24 17:01:18;;;;;;;0.30;0.30;;;11.80;99.90;;;;;;4982904;28;20269;-69
2024/01/24 17:03:44;;;;;;;0.37;0.37;;;11.80;99.90;;;;;;4981243;28;20225;-70
2024/01/24 17:06:10;;;;;;;0.30;0.30;;;11.80;99.90;;;;;;4980596;28;20236;-68
2024/01/24 17:08:38;;;;;;;0.40;0.40;;;11.80;99.90;;;;;;4980946;28;20469;-66
2024/01/24 17:11:05;;;;;;;0.30;0.20;;;11.80;99.90;;;;;;4980601;28;20190;-70
2024/01/24 17:13:30;;;;;;;0.30;0.30;;;11.80;99.90;;;;;;4980506;28;20521;-69
2024/01/24 17:15:56;;;;;;;0.30;0.30;;;11.70;99.90;;;;;;4979681;28;20473;-63
2024/01/24 17:18:21;;;;;;;0.30;0.30;;;11.70;99.90;;;;;;4980435;28;20548;-67
2024/01/24 17:20:47;;;;;;;0.30;0.20;;;11.70;99.90;;;;;;4980715;28;20176;-68
2024/01/24 17:23:14;;;;;;;0.30;0.30;;;11.70;99.90;;;;;;4980647;28;20198;-68
2024/01/24 17:25:40;;;;;;;0.30;0.30;;;11.70;99.90;;;;;;4980044;28;20290;-68
2024/01/24 17:28:06;;;;;;;0.30;0.27;;;11.70;99.90;;;;;;4980047;28;20496;-66
2024/01/24 17:30:32;;;;;;;0.30;0.30;;;11.60;99.90;;;;;;4979873;28;20183;-68
2024/01/24 17:32:58;;;;;;;0.30;0.30;;;11.60;99.90;;;;;;4979950;28;20186;-64
2024/01/24 17:35:24;;;;;;;0.30;0.30;;;11.50;99.90;;;;;;4979817;28;20213;-66
2024/01/24 17:37:50;;;;;;;0.30;0.30;;;11.40;99.90;;;;;;4980226;28;20960;-66
2024/01/24 17:40:16;;;;;;;0.30;0.30;;;11.40;99.90;;;;;;4980320;28;20493;-68
2024/01/24 17:42:41;;;;;;;0.30;0.30;;;11.40;99.90;;;;;;4980223;28;20232;-69
2024/01/24 17:45:08;;;;;;;0.30;0.30;;;11.40;99.90;;;;;;4978315;28;20434;-66
2024/01/24 17:47:35;;;;;;;0.33;0.33;;;11.30;99.90;;;;;;4979920;28;20258;-70
2024/01/24 17:50:01;;;;;;;0.30;0.30;;;11.30;99.90;;;;;;4979947;28;20412;-70